createdAt,value
2022-10-26T00:01:07.541Z,17.08
2022-10-26T00:03:36.150Z,17.24
2022-10-26T00:06:05.922Z,17.29
2022-10-26T00:08:33.731Z,17.34
2022-10-26T00:11:02.899Z,17.39
2022-10-26T00:13:30.798Z,17.42
2022-10-26T00:18:31.348Z,17.52
2022-10-26T00:21:03.728Z,17.53
2022-10-26T00:23:32.006Z,17.55
2022-10-26T00:25:59.774Z,17.43
2022-10-26T00:28:29.112Z,17.67
2022-10-26T00:30:58.660Z,17.66
2022-10-26T00:33:26.353Z,17.72
2022-10-26T00:35:54.331Z,17.74
2022-10-26T00:38:22.023Z,17.75
2022-10-26T00:40:49.861Z,17.77
2022-10-26T00:43:18.001Z,17.78
2022-10-26T00:45:47.198Z,17.82
2022-10-26T00:48:17.125Z,17.80
2022-10-26T00:50:45.373Z,17.60
2022-10-26T00:53:13.053Z,17.53
2022-10-26T00:55:43.050Z,17.81
2022-10-26T00:58:10.796Z,17.98
2022-10-26T01:00:39.749Z,17.96
2022-10-26T01:03:09.183Z,18.02
2022-10-26T01:05:38.580Z,17.51
2022-10-26T01:08:06.707Z,18.07
2022-10-26T01:10:34.606Z,18.05
2022-10-26T01:13:02.268Z,18.06
2022-10-26T01:15:32.649Z,18.07
2022-10-26T01:18:03.459Z,18.09
2022-10-26T01:21:02.542Z,18.11
2022-10-26T01:23:33.948Z,18.10
2022-10-26T01:26:30.030Z,18.13
2022-10-26T01:29:27.614Z,18.15
2022-10-26T01:31:58.031Z,17.87
2022-10-26T01:34:26.700Z,18.10
2022-10-26T01:36:55.735Z,18.14
2022-10-26T01:39:25.412Z,18.14
2022-10-26T01:41:55.225Z,18.16
2022-10-26T01:44:24.413Z,18.17
2022-10-26T01:46:52.928Z,18.22
2022-10-26T01:49:23.859Z,18.14
2022-10-26T01:51:51.611Z,18.23
2022-10-26T01:54:19.267Z,17.93
2022-10-26T01:56:48.314Z,18.30
2022-10-26T01:59:32.726Z,18.29
2022-10-26T02:02:29.150Z,18.34
2022-10-26T02:05:17.556Z,18.34
2022-10-26T02:07:49.871Z,18.35
2022-10-26T02:10:22.729Z,18.40
2022-10-26T02:12:53.842Z,18.39
2022-10-26T02:15:23.274Z,18.45
2022-10-26T02:17:52.514Z,18.50
2022-10-26T02:20:23.437Z,18.47
2022-10-26T02:22:51.811Z,18.46
2022-10-26T02:25:22.075Z,18.50
2022-10-26T02:27:52.502Z,18.54
2022-10-26T02:30:20.550Z,18.56
2022-10-26T02:32:49.626Z,18.60
2022-10-26T02:35:17.445Z,18.65
2022-10-26T02:37:46.973Z,18.63
2022-10-26T02:40:17.145Z,18.63
2022-10-26T02:42:45.964Z,18.61
2022-10-26T02:45:15.026Z,18.69
2022-10-26T02:47:42.897Z,18.76
2022-10-26T02:50:10.907Z,18.72
2022-10-26T02:52:41.848Z,18.66
2022-10-26T02:55:12.669Z,18.76
2022-10-26T02:57:41.595Z,18.78
2022-10-26T03:02:46.129Z,18.55
2022-10-26T03:05:17.620Z,18.85
2022-10-26T03:07:45.380Z,18.52
2022-10-26T03:10:14.623Z,18.86
2022-10-26T03:12:42.296Z,18.96
2022-10-26T03:15:10.825Z,18.88
2022-10-26T03:17:38.672Z,18.96
2022-10-26T03:20:07.658Z,19.01
2022-10-26T03:22:35.470Z,18.97
2022-10-26T03:25:03.596Z,19.00
2022-10-26T03:27:32.704Z,18.97
2022-10-26T03:30:00.490Z,19.05
2022-10-26T03:32:28.368Z,19.05
2022-10-26T03:34:56.190Z,18.95
2022-10-26T03:37:23.979Z,19.04
2022-10-26T03:39:51.680Z,19.04
2022-10-26T03:42:19.450Z,19.07
2022-10-26T03:44:48.555Z,19.08
2022-10-26T03:47:16.430Z,19.08
2022-10-26T03:49:44.135Z,19.08
2022-10-26T03:52:11.982Z,19.13
2022-10-26T03:54:39.621Z,19.12
2022-10-26T03:57:07.390Z,19.08
2022-10-26T03:59:35.171Z,19.09
2022-10-26T04:02:04.267Z,19.12
2022-10-26T04:04:31.988Z,19.04
2022-10-26T04:06:59.799Z,19.06
2022-10-26T04:09:27.506Z,19.04
2022-10-26T04:11:55.330Z,19.03
2022-10-26T04:14:22.972Z,19.05
2022-10-26T04:16:50.779Z,19.02
2022-10-26T04:19:20.023Z,19.06
2022-10-26T04:21:47.820Z,18.98
2022-10-26T04:24:16.231Z,19.03
2022-10-26T04:26:45.159Z,18.98
2022-10-26T04:29:13.726Z,19.06
2022-10-26T04:37:07.570Z,17.45
2022-10-26T04:39:39.797Z,18.99
2022-10-26T04:42:17.767Z,16.65
2022-10-26T04:44:45.693Z,17.44
2022-10-26T04:47:13.899Z,18.66
2022-10-26T04:49:41.731Z,18.43
2022-10-26T04:52:11.005Z,18.46
2022-10-26T04:54:39.020Z,17.39
2022-10-26T04:57:07.069Z,19.12
2022-10-26T04:59:35.135Z,18.75
2022-10-26T05:02:03.230Z,18.40
2022-10-26T05:04:31.253Z,18.49
2022-10-26T05:06:59.072Z,17.63
2022-10-26T05:09:28.233Z,17.47
2022-10-26T05:11:56.041Z,18.45
2022-10-26T05:14:23.881Z,17.57
2022-10-26T05:16:52.230Z,18.54
2022-10-26T05:19:20.175Z,18.41
2022-10-26T05:21:48.294Z,18.67
2022-10-26T05:24:16.365Z,17.85
2022-10-26T05:26:47.579Z,18.54
2022-10-26T05:29:15.553Z,18.42
2022-10-26T05:31:43.404Z,18.64
2022-10-26T05:34:13.100Z,17.09
2022-10-26T05:36:42.074Z,18.39
2022-10-26T05:39:10.125Z,17.83
2022-10-26T05:41:38.134Z,18.06
2022-10-26T05:44:07.636Z,18.63
2022-10-26T05:46:35.927Z,18.04
2022-10-26T05:49:03.963Z,18.62
2022-10-26T05:51:34.665Z,17.41
2022-10-26T05:54:02.663Z,17.47
2022-10-26T05:56:36.052Z,18.40
2022-10-26T05:59:04.635Z,16.84
2022-10-26T06:01:38.629Z,17.27
2022-10-26T06:04:22.604Z,17.78
2022-10-26T06:06:53.788Z,17.16
2022-10-26T06:09:22.294Z,18.23
2022-10-26T06:14:19.137Z,17.58
2022-10-26T06:16:58.086Z,19.22
2022-10-26T06:19:32.265Z,19.03
2022-10-26T06:22:06.436Z,18.87
2022-10-26T06:24:37.895Z,18.00
2022-10-26T06:27:09.163Z,17.75
2022-10-26T06:29:43.899Z,17.84
2022-10-26T06:32:13.140Z,18.77
2022-10-26T06:34:44.275Z,19.03
2022-10-26T06:37:12.343Z,18.65
2022-10-26T06:39:41.851Z,17.18
2022-10-26T06:42:10.547Z,18.01
2022-10-26T06:44:39.483Z,17.97
2022-10-26T06:47:08.713Z,18.50
2022-10-26T06:49:39.036Z,18.06
2022-10-26T06:52:11.564Z,18.52
2022-10-26T06:54:47.145Z,17.42
2022-10-26T06:57:16.162Z,19.25
2022-10-26T06:59:45.734Z,19.07
2022-10-26T07:02:14.748Z,19.51
2022-10-26T07:04:44.372Z,19.96
2022-10-26T07:07:14.379Z,19.46
2022-10-26T07:09:42.663Z,20.00
2022-10-26T07:12:10.636Z,20.03
2022-10-26T07:14:38.396Z,17.39
2022-10-26T07:17:06.386Z,18.28
2022-10-26T07:19:34.347Z,19.51
2022-10-26T07:22:03.679Z,18.41
2022-10-26T07:24:31.880Z,19.03
2022-10-26T07:26:59.794Z,17.35
2022-10-26T07:29:28.030Z,18.48
2022-10-26T07:31:55.841Z,20.42
2022-10-26T07:34:23.598Z,19.72
2022-10-26T07:36:51.889Z,17.76
2022-10-26T07:39:21.229Z,19.50
2022-10-26T07:41:49.011Z,19.63
2022-10-26T07:44:16.802Z,19.37
2022-10-26T07:46:44.886Z,20.00
2022-10-26T07:49:15.239Z,18.96
2022-10-26T07:51:45.700Z,19.77
2022-10-26T07:54:13.451Z,17.95
2022-10-26T07:56:42.647Z,19.73
2022-10-26T07:59:12.707Z,20.61
2022-10-26T08:01:40.580Z,21.09
2022-10-26T08:04:08.669Z,23.71
2022-10-26T08:06:36.527Z,22.74
2022-10-26T08:09:04.608Z,21.37
2022-10-26T08:11:32.404Z,23.92
2022-10-26T08:14:01.652Z,24.51
2022-10-26T08:16:29.507Z,24.48
2022-10-26T08:18:58.329Z,25.01
2022-10-26T08:21:39.140Z,22.25
2022-10-26T08:24:08.210Z,22.09
2022-10-26T08:26:36.024Z,22.95
2022-10-26T08:29:05.228Z,25.40
2022-10-26T08:31:32.986Z,25.06
2022-10-26T08:34:01.955Z,26.80
2022-10-26T08:36:29.931Z,27.49
2022-10-26T08:41:31.636Z,28.58
2022-10-26T08:44:01.169Z,30.61
2022-10-26T08:46:31.184Z,29.77
2022-10-26T08:49:00.461Z,31.12
2022-10-26T08:51:30.591Z,32.10
2022-10-26T08:53:58.851Z,33.00
2022-10-26T08:56:27.455Z,32.32
2022-10-26T08:58:56.597Z,32.93
2022-10-26T09:01:24.720Z,33.64
2022-10-26T09:03:54.019Z,31.48
2022-10-26T09:06:25.414Z,33.92
2022-10-26T09:08:58.406Z,32.25
2022-10-26T09:11:34.159Z,31.28
2022-10-26T09:14:05.743Z,30.94
2022-10-26T09:16:35.019Z,32.50
2022-10-26T09:19:15.589Z,34.39
2022-10-26T09:21:47.246Z,34.29
2022-10-26T09:24:15.858Z,35.78
2022-10-26T09:26:53.357Z,36.24
2022-10-26T09:29:21.848Z,36.94
2022-10-26T09:31:50.918Z,37.93
2022-10-26T09:34:27.292Z,39.32
2022-10-26T09:36:56.113Z,39.12
2022-10-26T09:39:27.843Z,40.39
2022-10-26T09:41:57.267Z,40.25
2022-10-26T09:44:27.240Z,38.79
2022-10-26T09:46:58.158Z,39.02
2022-10-26T09:49:31.288Z,37.99
2022-10-26T09:51:59.064Z,37.24
2022-10-26T09:54:26.889Z,39.30
2022-10-26T09:56:56.927Z,36.99
2022-10-26T09:59:25.653Z,38.32
2022-10-26T10:01:53.470Z,41.09
2022-10-26T10:04:22.841Z,40.73
2022-10-26T10:06:52.756Z,41.44
2022-10-26T10:09:22.105Z,39.87
2022-10-26T10:11:55.016Z,40.54
2022-10-26T10:14:23.688Z,40.08
2022-10-26T10:16:52.855Z,40.30
2022-10-26T10:19:23.514Z,38.48
2022-10-26T10:21:53.480Z,40.02
2022-10-26T10:24:31.352Z,40.79
2022-10-26T10:27:03.925Z,42.25
2022-10-26T10:29:32.672Z,42.18
2022-10-26T10:32:01.402Z,43.76
2022-10-26T10:34:31.567Z,44.63
2022-10-26T10:37:01.052Z,43.51
2022-10-26T10:39:37.727Z,43.69
2022-10-26T10:42:06.546Z,44.43
2022-10-26T10:44:34.548Z,46.09
2022-10-26T10:47:02.879Z,45.33
2022-10-26T10:49:30.995Z,44.71
2022-10-26T10:52:00.659Z,46.46
2022-10-26T10:54:30.443Z,44.44
2022-10-26T10:57:01.825Z,45.65
2022-10-26T10:59:38.195Z,44.92
2022-10-26T11:02:27.797Z,43.20
2022-10-26T11:05:04.144Z,41.58
2022-10-26T11:07:43.901Z,42.58
2022-10-26T11:10:13.497Z,44.33
2022-10-26T11:12:43.947Z,42.72
2022-10-26T11:15:14.480Z,44.36
2022-10-26T11:17:47.822Z,44.96
2022-10-26T11:20:17.633Z,45.73
2022-10-26T11:22:59.709Z,45.18
2022-10-26T11:25:29.362Z,44.75
2022-10-26T11:27:58.407Z,45.74
2022-10-26T11:30:26.856Z,44.73
2022-10-26T11:32:55.909Z,46.91
2022-10-26T11:35:26.843Z,45.32
2022-10-26T11:37:58.014Z,45.99
2022-10-26T11:40:29.822Z,47.04
2022-10-26T11:43:03.478Z,47.80
2022-10-26T11:45:33.685Z,47.04
2022-10-26T11:48:03.705Z,47.71
2022-10-26T11:50:34.141Z,49.40
2022-10-26T11:53:04.895Z,48.23
2022-10-26T11:55:32.829Z,47.92
2022-10-26T11:58:02.862Z,49.91
2022-10-26T12:00:32.298Z,48.78
2022-10-26T12:03:15.156Z,47.34
2022-10-26T12:06:11.435Z,45.51
2022-10-26T12:08:47.414Z,45.00
2022-10-26T12:11:17.981Z,43.83
2022-10-26T12:13:48.033Z,42.63
2022-10-26T12:16:22.121Z,41.12
2022-10-26T12:18:56.700Z,40.98
2022-10-26T12:21:26.431Z,40.50
2022-10-26T12:23:57.815Z,38.01
2022-10-26T12:26:39.926Z,37.22
2022-10-26T12:29:15.282Z,36.76
2022-10-26T12:31:44.185Z,35.80
2022-10-26T12:34:13.338Z,33.69
2022-10-26T12:36:51.301Z,34.69
2022-10-26T12:39:30.816Z,31.89
2022-10-26T12:42:14.179Z,33.35
2022-10-26T12:46:12.646Z,30.51
2022-10-26T12:48:40.709Z,32.85
2022-10-26T12:51:44.924Z,32.48
2022-10-26T12:54:19.351Z,29.75
2022-10-26T12:57:15.794Z,30.00
2022-10-26T12:59:45.400Z,31.40
2022-10-26T13:02:45.805Z,30.07
2022-10-26T13:05:53.255Z,31.00
2022-10-26T13:11:03.479Z,30.52
2022-10-26T13:13:33.871Z,30.44
2022-10-26T13:16:01.841Z,30.41
2022-10-26T13:18:29.561Z,30.24
2022-10-26T13:21:02.441Z,29.87
2022-10-26T13:23:31.138Z,29.91
2022-10-26T13:26:07.038Z,29.73
2022-10-26T13:28:47.794Z,29.45
2022-10-26T13:31:37.377Z,29.44
2022-10-26T13:34:06.526Z,29.34
2022-10-26T13:36:35.132Z,28.91
2022-10-26T13:39:05.366Z,29.13
2022-10-26T13:41:35.201Z,29.06
2022-10-26T13:44:06.551Z,29.05
2022-10-26T13:46:37.195Z,28.85
2022-10-26T13:49:07.073Z,28.78
2022-10-26T13:51:40.415Z,28.65
2022-10-26T13:54:14.013Z,28.74
2022-10-26T13:56:44.041Z,28.63
2022-10-26T13:59:14.038Z,28.57
2022-10-26T14:01:41.825Z,28.55
2022-10-26T14:04:16.140Z,28.48
2022-10-26T14:06:43.972Z,28.39
2022-10-26T14:09:14.088Z,28.32
2022-10-26T14:11:45.136Z,28.26
2022-10-26T14:14:14.844Z,28.14
2022-10-26T14:16:46.543Z,28.12
2022-10-26T14:19:16.113Z,28.05
2022-10-26T14:21:49.837Z,27.99
2022-10-26T14:24:27.542Z,27.84
2022-10-26T14:27:03.639Z,27.83
2022-10-26T14:29:34.162Z,27.64
2022-10-26T14:32:01.887Z,27.71
2022-10-26T14:34:29.617Z,27.66
2022-10-26T14:36:59.192Z,27.22
2022-10-26T14:39:31.221Z,27.41
2022-10-26T14:41:59.361Z,27.33
2022-10-26T14:44:28.042Z,27.26
2022-10-26T14:46:57.141Z,27.11
2022-10-26T14:49:25.945Z,27.05
2022-10-26T14:51:58.047Z,26.79
2022-10-26T14:54:26.649Z,26.91
2022-10-26T14:56:54.418Z,26.88
2022-10-26T14:59:23.420Z,26.83
2022-10-26T15:01:52.341Z,26.57
2022-10-26T15:04:34.830Z,26.71
2022-10-26T15:07:03.909Z,26.60
2022-10-26T15:09:33.859Z,26.32
2022-10-26T15:12:02.891Z,26.43
2022-10-26T15:14:32.699Z,26.33
2022-10-26T15:17:00.392Z,26.25
2022-10-26T15:19:28.122Z,26.20
2022-10-26T15:21:57.176Z,26.13
2022-10-26T15:24:35.920Z,26.06
2022-10-26T15:27:12.399Z,26.00
2022-10-26T15:29:42.102Z,25.86
2022-10-26T15:32:37.016Z,25.91
2022-10-26T15:35:25.426Z,25.79
2022-10-26T15:37:55.619Z,25.43
2022-10-26T15:42:56.725Z,25.53
2022-10-26T15:45:25.545Z,25.48
2022-10-26T15:47:53.888Z,25.38
2022-10-26T15:50:22.525Z,25.32
2022-10-26T15:52:50.714Z,25.24
2022-10-26T15:55:20.125Z,25.09
2022-10-26T15:57:48.172Z,25.09
2022-10-26T16:00:17.042Z,25.05
2022-10-26T16:02:45.427Z,24.73
2022-10-26T16:05:13.531Z,24.82
2022-10-26T16:07:43.128Z,24.85
2022-10-26T16:10:14.403Z,24.74
2022-10-26T16:12:43.805Z,24.63
2022-10-26T16:15:17.268Z,24.61
2022-10-26T16:17:45.260Z,24.47
2022-10-26T16:20:14.676Z,24.33
2022-10-26T16:22:46.925Z,24.43
2022-10-26T16:25:15.784Z,23.98
2022-10-26T16:27:44.942Z,24.26
2022-10-26T16:30:14.014Z,24.23
2022-10-26T16:32:41.811Z,24.18
2022-10-26T16:35:10.308Z,24.04
2022-10-26T16:37:38.000Z,24.05
2022-10-26T16:40:06.818Z,23.99
2022-10-26T16:42:34.525Z,23.91
2022-10-26T16:45:03.955Z,23.93
2022-10-26T16:47:35.502Z,23.70
2022-10-26T16:50:03.689Z,23.85
2022-10-26T16:52:31.317Z,23.83
2022-10-26T16:54:59.070Z,23.75
2022-10-26T16:57:26.719Z,23.73
2022-10-26T16:59:55.419Z,23.67
2022-10-26T17:02:24.582Z,23.63
2022-10-26T17:04:53.363Z,23.54
2022-10-26T17:07:21.008Z,23.52
2022-10-26T17:09:48.659Z,23.53
2022-10-26T17:12:17.477Z,23.51
2022-10-26T17:14:45.221Z,23.51
2022-10-26T17:17:13.111Z,23.38
2022-10-26T17:19:42.179Z,23.42
2022-10-26T17:22:20.856Z,23.61
2022-10-26T17:24:48.668Z,23.63
2022-10-26T17:27:17.413Z,23.55
2022-10-26T17:29:46.332Z,23.59
2022-10-26T17:32:14.833Z,23.55
2022-10-26T17:34:46.407Z,23.50
2022-10-26T17:37:14.125Z,23.47
2022-10-26T17:39:41.814Z,23.43
2022-10-26T17:42:09.594Z,23.39
2022-10-26T17:44:39.083Z,23.37
2022-10-26T17:47:06.881Z,23.31
2022-10-26T17:49:36.277Z,23.29
2022-10-26T17:52:06.661Z,23.23
2022-10-26T17:54:35.412Z,22.98
2022-10-26T17:57:03.253Z,23.16
2022-10-26T17:59:33.019Z,23.11
2022-10-26T18:02:00.764Z,23.15
2022-10-26T18:04:28.742Z,23.16
2022-10-26T18:06:56.432Z,23.17
2022-10-26T18:09:25.410Z,23.19
2022-10-26T18:11:55.123Z,23.21
2022-10-26T18:14:23.778Z,23.25
2022-10-26T18:16:51.636Z,23.27
2022-10-26T18:19:19.302Z,23.28
2022-10-26T18:21:47.056Z,23.32
2022-10-26T18:24:14.669Z,23.32
2022-10-26T18:26:43.717Z,23.30
2022-10-26T18:29:11.520Z,23.29
2022-10-26T18:31:39.227Z,23.27
2022-10-26T18:34:07.041Z,23.22
2022-10-26T18:39:08.511Z,23.20
2022-10-26T18:41:36.280Z,23.18
2022-10-26T18:44:05.642Z,23.16
2022-10-26T18:46:33.930Z,22.98
2022-10-26T18:49:01.663Z,23.09
2022-10-26T18:51:31.411Z,23.00
2022-10-26T18:53:59.233Z,22.88
2022-10-26T18:56:27.331Z,22.82
2022-10-26T18:58:56.435Z,22.72
2022-10-26T19:01:26.279Z,22.63
2022-10-26T19:03:54.352Z,22.55
2022-10-26T19:06:23.541Z,22.45
2022-10-26T19:08:51.252Z,22.38
2022-10-26T19:11:19.685Z,22.27
2022-10-26T19:19:57.385Z,19.02
2022-10-26T19:22:26.987Z,21.95
2022-10-26T19:24:57.018Z,20.00
2022-10-26T19:27:32.671Z,19.95
2022-10-26T19:30:04.515Z,18.71
2022-10-26T19:32:33.416Z,21.05
2022-10-26T19:35:07.921Z,20.35
2022-10-26T19:37:36.384Z,21.42
2022-10-26T19:40:04.911Z,21.49
2022-10-26T19:42:33.318Z,20.52
2022-10-26T19:52:04.816Z,21.22
2022-10-26T19:54:33.053Z,19.35
2022-10-26T19:57:01.418Z,19.31
2022-10-26T19:59:29.801Z,19.11
2022-10-26T20:02:00.671Z,19.28
2022-10-26T20:04:29.754Z,17.72
2022-10-26T20:07:18.346Z,19.41
2022-10-26T20:09:59.762Z,18.78
2022-10-26T20:12:34.913Z,18.02
2022-10-26T20:15:04.096Z,19.62
2022-10-26T20:18:22.255Z,20.85
2022-10-26T20:21:04.321Z,19.18
2022-10-26T20:27:06.701Z,19.83
2022-10-26T20:29:50.148Z,17.63
2022-10-26T20:32:19.257Z,20.58
2022-10-26T20:34:54.067Z,18.93
2022-10-26T20:38:03.542Z,17.69
2022-10-26T20:40:55.911Z,20.46
2022-10-26T20:43:28.406Z,18.13
2022-10-26T20:46:17.145Z,18.88
2022-10-26T20:49:17.679Z,18.97
2022-10-26T20:52:21.163Z,18.22
2022-10-26T20:54:54.491Z,18.92
2022-10-26T20:57:44.360Z,20.29
2022-10-26T21:00:15.010Z,20.23
2022-10-26T21:03:00.977Z,20.25
2022-10-26T21:05:34.685Z,19.61
2022-10-26T21:08:03.988Z,17.87
2022-10-26T21:10:58.992Z,17.36
2022-10-26T21:13:29.519Z,18.49
2022-10-26T21:16:01.286Z,19.08
2022-10-26T21:18:37.041Z,19.53
2022-10-26T21:21:34.273Z,16.62
2022-10-26T21:24:05.788Z,20.18
2022-10-26T21:30:26.386Z,19.39
2022-10-26T21:32:59.839Z,17.89
2022-10-26T21:38:50.308Z,18.50
2022-10-26T21:44:03.263Z,18.07
2022-10-26T21:46:38.436Z,19.81
2022-10-26T21:49:06.411Z,19.75
2022-10-26T21:51:34.919Z,19.72
2022-10-26T21:54:02.760Z,19.60
2022-10-26T21:56:30.507Z,19.69
2022-10-26T21:59:00.085Z,19.67
2022-10-26T22:01:28.062Z,19.66
2022-10-26T22:03:57.552Z,19.62
2022-10-26T22:06:26.432Z,19.65
2022-10-26T22:08:54.473Z,19.64
2022-10-26T22:11:23.391Z,18.37
2022-10-26T22:13:53.498Z,19.59
2022-10-26T22:16:22.220Z,19.34
2022-10-26T22:18:50.474Z,19.55
2022-10-26T22:21:19.867Z,19.32
2022-10-26T22:23:47.724Z,18.90
2022-10-26T22:26:16.797Z,19.33
2022-10-26T22:28:46.091Z,19.27
2022-10-26T22:31:15.084Z,18.51
2022-10-26T22:33:43.387Z,18.62
2022-10-26T22:36:13.138Z,19.09
2022-10-26T22:38:43.164Z,19.48
2022-10-26T22:41:11.390Z,18.93
2022-10-26T22:43:44.460Z,19.00
2022-10-26T22:46:12.911Z,19.25
2022-10-26T22:48:41.171Z,19.55
2022-10-26T22:51:09.402Z,19.47
2022-10-26T22:53:42.943Z,19.54
2022-10-26T22:56:11.566Z,19.42
2022-10-26T22:58:39.327Z,19.57
2022-10-26T23:01:08.224Z,19.39
2022-10-26T23:03:36.131Z,19.32
2022-10-26T23:06:04.142Z,19.40
2022-10-26T23:08:32.337Z,19.27
2022-10-26T23:11:05.337Z,19.33
2022-10-26T23:13:33.049Z,19.59
2022-10-26T23:16:07.222Z,19.55
2022-10-26T23:21:10.780Z,19.53
2022-10-26T23:23:38.567Z,19.17
2022-10-26T23:26:08.665Z,17.97
2022-10-26T23:28:36.587Z,18.45
2022-10-26T23:31:04.539Z,18.09
2022-10-26T23:36:01.158Z,19.55
2022-10-26T23:38:28.790Z,19.17
2022-10-26T23:40:57.241Z,19.47
2022-10-26T23:43:26.569Z,19.42
2022-10-26T23:45:54.414Z,19.39
2022-10-26T23:48:22.360Z,19.23
2022-10-26T23:50:50.677Z,19.28
2022-10-26T23:53:19.413Z,19.23
2022-10-26T23:55:48.227Z,19.21
2022-10-26T23:58:15.999Z,19.18
